createdAt,value
2018-08-13T00:01:28.173Z,2.92
2018-08-13T00:03:56.932Z,3.10
2018-08-13T00:06:24.968Z,3.00
2018-08-13T00:08:53.510Z,3.02
2018-08-13T00:11:21.610Z,2.90
2018-08-13T00:13:50.314Z,3.12
2018-08-13T00:16:18.601Z,2.85
2018-08-13T00:18:46.664Z,3.50
2018-08-13T00:21:14.700Z,3.45
2018-08-13T00:23:43.225Z,3.00
2018-08-13T00:26:11.289Z,3.17
2018-08-13T00:28:39.732Z,2.90
2018-08-13T00:31:07.993Z,3.77
2018-08-13T00:33:36.068Z,3.52
2018-08-13T00:36:04.092Z,3.17
2018-08-13T00:38:32.140Z,3.60
2018-08-13T00:41:00.189Z,3.45
2018-08-13T00:43:28.228Z,3.20
2018-08-13T00:45:56.268Z,2.83
2018-08-13T00:48:24.308Z,3.17
2018-08-13T00:50:52.369Z,3.33
2018-08-13T00:53:20.405Z,3.12
2018-08-13T00:55:48.906Z,2.60
2018-08-13T00:58:17.201Z,3.10
2018-08-13T01:00:45.244Z,3.08
2018-08-13T01:03:13.656Z,2.90
2018-08-13T01:05:41.784Z,2.92
2018-08-13T01:08:10.081Z,3.20
2018-08-13T01:10:38.132Z,2.90
2018-08-13T01:13:06.755Z,2.90
2018-08-13T01:15:35.315Z,3.75
2018-08-13T01:18:03.372Z,3.17
2018-08-13T01:20:31.428Z,3.15
2018-08-13T01:22:59.555Z,3.45
2018-08-13T01:25:27.605Z,3.35
2018-08-13T01:27:55.673Z,3.00
2018-08-13T01:30:23.696Z,3.45
2018-08-13T01:32:51.743Z,2.72
2018-08-13T01:35:19.792Z,3.05
2018-08-13T01:37:47.823Z,3.10
2018-08-13T01:40:15.864Z,3.12
2018-08-13T01:42:43.908Z,3.00
2018-08-13T01:45:13.117Z,3.00
2018-08-13T01:47:42.289Z,3.15
2018-08-13T01:50:11.836Z,2.70
2018-08-13T01:52:40.641Z,3.30
2018-08-13T01:55:09.410Z,3.15
2018-08-13T01:57:37.481Z,3.05
2018-08-13T02:00:07.604Z,3.00
2018-08-13T02:02:36.174Z,3.05
2018-08-13T02:05:05.097Z,3.65
2018-08-13T02:07:33.219Z,3.45
2018-08-13T02:10:01.618Z,3.77
2018-08-13T02:12:29.800Z,3.25
2018-08-13T02:14:57.848Z,3.00
2018-08-13T02:17:25.892Z,3.40
2018-08-13T02:19:55.289Z,3.85
2018-08-13T02:22:23.334Z,3.10
2018-08-13T02:24:51.727Z,3.55
2018-08-13T02:27:19.836Z,3.55
2018-08-13T02:29:47.890Z,3.40
2018-08-13T02:32:16.197Z,3.35
2018-08-13T02:34:44.244Z,3.15
2018-08-13T02:37:12.696Z,3.42
2018-08-13T02:39:40.948Z,3.20
2018-08-13T02:42:08.997Z,3.22
2018-08-13T02:44:37.037Z,2.95
2018-08-13T02:47:05.877Z,3.35
2018-08-13T02:49:34.060Z,3.70
2018-08-13T02:52:02.320Z,3.25
2018-08-13T02:54:30.364Z,3.40
2018-08-13T02:56:58.420Z,3.55
2018-08-13T02:59:26.468Z,4.10
2018-08-13T03:01:54.508Z,3.52
2018-08-13T03:04:23.844Z,2.92
2018-08-13T03:06:51.891Z,3.12
2018-08-13T03:09:19.924Z,3.67
2018-08-13T03:11:47.981Z,3.10
2018-08-13T03:14:16.021Z,3.62
2018-08-13T03:16:44.065Z,3.90
2018-08-13T03:19:12.109Z,3.50
2018-08-13T03:21:40.245Z,3.20
2018-08-13T03:24:08.352Z,3.67
2018-08-13T03:26:36.378Z,3.10
2018-08-13T03:29:04.456Z,3.15
2018-08-13T03:31:32.500Z,3.60
2018-08-13T03:34:00.555Z,3.30
2018-08-13T03:36:28.607Z,2.92
2018-08-13T03:38:56.649Z,3.42
2018-08-13T03:41:25.099Z,2.83
2018-08-13T03:43:53.209Z,3.52
2018-08-13T03:46:21.260Z,3.15
2018-08-13T03:48:49.722Z,3.37
2018-08-13T03:51:17.795Z,3.12
2018-08-13T03:53:46.273Z,3.70
2018-08-13T03:56:14.289Z,3.47
2018-08-13T03:58:42.741Z,4.42
2018-08-13T04:01:10.852Z,4.45
2018-08-13T04:03:38.934Z,3.80
2018-08-13T04:06:07.484Z,3.55
2018-08-13T04:08:35.516Z,3.98
2018-08-13T04:11:03.599Z,3.40
2018-08-13T04:13:31.652Z,3.50
2018-08-13T04:15:59.767Z,3.00
2018-08-13T04:18:28.200Z,3.50
2018-08-13T04:20:56.348Z,4.20
2018-08-13T04:23:24.388Z,4.00
2018-08-13T04:25:52.448Z,3.62
2018-08-13T04:28:20.508Z,3.58
2018-08-13T04:30:49.014Z,3.55
2018-08-13T04:33:17.080Z,3.50
2018-08-13T04:35:45.144Z,3.60
2018-08-13T04:38:13.220Z,3.27
2018-08-13T04:40:41.707Z,4.17
2018-08-13T04:43:09.771Z,3.50
2018-08-13T04:45:37.910Z,3.70
2018-08-13T04:48:06.014Z,4.08
2018-08-13T04:50:34.077Z,3.65
2018-08-13T04:53:02.140Z,3.60
2018-08-13T04:55:30.568Z,4.00
2018-08-13T04:57:58.914Z,4.37
2018-08-13T05:00:26.972Z,3.52
2018-08-13T05:02:55.264Z,4.10
2018-08-13T05:05:23.437Z,3.60
2018-08-13T05:07:51.504Z,4.03
2018-08-13T05:10:19.568Z,3.80
2018-08-13T05:12:47.641Z,3.85
2018-08-13T05:15:15.849Z,4.03
2018-08-13T05:17:44.249Z,4.08
2018-08-13T05:20:12.346Z,4.50
2018-08-13T05:22:40.426Z,3.52
2018-08-13T05:25:09.930Z,4.00
2018-08-13T05:27:37.984Z,4.60
2018-08-13T05:30:07.559Z,3.92
2018-08-13T05:32:35.636Z,3.95
2018-08-13T05:35:05.198Z,3.62
2018-08-13T05:37:33.801Z,3.92
2018-08-13T05:40:01.917Z,3.37
2018-08-13T05:42:29.974Z,3.30
2018-08-13T05:44:58.297Z,3.65
2018-08-13T05:47:26.365Z,4.33
2018-08-13T05:49:54.745Z,3.95
2018-08-13T05:52:22.853Z,4.10
2018-08-13T05:54:50.937Z,3.90
2018-08-13T05:57:19.022Z,4.00
2018-08-13T05:59:47.064Z,4.15
2018-08-13T06:02:15.564Z,4.15
2018-08-13T06:04:44.348Z,7.12
2018-08-13T06:07:12.400Z,6.90
2018-08-13T06:09:40.473Z,7.22
2018-08-13T06:12:08.536Z,6.45
2018-08-13T06:14:36.608Z,6.87
2018-08-13T06:17:04.796Z,6.58
2018-08-13T06:19:32.909Z,6.47
2018-08-13T06:22:00.956Z,6.95
2018-08-13T06:24:29.567Z,6.53
2018-08-13T06:26:57.599Z,6.12
2018-08-13T06:29:25.668Z,5.97
2018-08-13T06:31:53.804Z,6.20
2018-08-13T06:34:21.872Z,6.03
2018-08-13T06:36:50.008Z,5.83
2018-08-13T06:39:18.528Z,5.50
2018-08-13T06:41:46.588Z,5.35
2018-08-13T06:44:14.702Z,6.10
2018-08-13T06:46:42.719Z,6.10
2018-08-13T06:49:10.842Z,5.78
2018-08-13T06:51:39.186Z,6.47
2018-08-13T06:54:07.248Z,6.30
2018-08-13T06:56:35.312Z,6.70
2018-08-13T06:59:03.489Z,6.90
2018-08-13T07:01:31.573Z,6.10
2018-08-13T07:03:59.616Z,7.00
2018-08-13T07:06:27.672Z,6.33
2018-08-13T07:08:55.748Z,5.92
2018-08-13T07:11:23.796Z,6.87
2018-08-13T07:13:51.895Z,7.17
2018-08-13T07:16:19.977Z,6.95
2018-08-13T07:18:48.001Z,7.50
2018-08-13T07:21:16.108Z,7.37
2018-08-13T07:23:44.160Z,6.83
2018-08-13T07:26:12.564Z,6.95
2018-08-13T07:28:40.610Z,7.50
2018-08-13T07:31:08.885Z,8.23
2018-08-13T07:33:37.047Z,8.60
2018-08-13T07:36:05.009Z,10.08
2018-08-13T07:38:33.104Z,8.43
2018-08-13T07:41:01.152Z,8.13
2018-08-13T07:43:29.197Z,8.10
2018-08-13T07:45:57.236Z,7.75
2018-08-13T07:48:25.292Z,8.00
2018-08-13T07:50:53.380Z,7.83
2018-08-13T07:53:21.700Z,7.95
2018-08-13T07:55:49.748Z,7.60
2018-08-13T07:58:17.789Z,7.97
2018-08-13T08:00:45.913Z,8.50
2018-08-13T08:03:14.002Z,7.30
2018-08-13T08:05:42.082Z,8.30
2018-08-13T08:08:10.136Z,7.50
2018-08-13T08:10:38.186Z,7.87
2018-08-13T08:13:06.847Z,7.40
2018-08-13T08:15:35.163Z,7.80
2018-08-13T08:18:03.428Z,7.25
2018-08-13T08:20:31.514Z,9.75
2018-08-13T08:22:59.597Z,8.48
2018-08-13T08:25:27.810Z,9.93
2018-08-13T08:27:55.843Z,9.13
2018-08-13T08:30:23.955Z,9.68
2018-08-13T08:32:52.080Z,9.10
2018-08-13T08:35:20.151Z,9.33
2018-08-13T08:37:48.285Z,10.35
2018-08-13T08:40:18.564Z,9.55
2018-08-13T08:42:46.949Z,10.13
2018-08-13T08:45:17.742Z,9.68
2018-08-13T08:47:46.031Z,8.08
2018-08-13T08:50:15.009Z,10.70
2018-08-13T08:52:43.576Z,10.70
2018-08-13T08:55:11.938Z,8.30
2018-08-13T08:57:39.980Z,7.90
2018-08-13T09:00:13.584Z,8.78
2018-08-13T09:02:41.938Z,9.15
2018-08-13T09:05:10.053Z,9.10
2018-08-13T09:07:38.537Z,7.97
2018-08-13T09:10:06.929Z,8.40
2018-08-13T09:12:35.127Z,7.97
2018-08-13T09:15:03.429Z,8.65
2018-08-13T09:17:43.277Z,8.88
2018-08-13T09:20:22.724Z,9.45
2018-08-13T09:23:02.493Z,8.63
2018-08-13T09:25:42.136Z,8.90
2018-08-13T09:28:21.796Z,8.90
2018-08-13T09:31:01.353Z,9.40
2018-08-13T09:33:41.328Z,10.38
2018-08-13T09:36:09.500Z,10.08
2018-08-13T09:38:37.525Z,9.78
2018-08-13T09:41:05.589Z,9.80
2018-08-13T09:43:33.632Z,10.58
2018-08-13T09:46:01.681Z,8.88
2018-08-13T09:48:30.309Z,9.38
2018-08-13T09:50:58.508Z,9.30
2018-08-13T09:53:26.810Z,10.05
2018-08-13T09:55:54.953Z,9.83
2018-08-13T09:58:23.188Z,9.03
2018-08-13T10:00:56.896Z,9.73
2018-08-13T10:03:25.187Z,9.88
2018-08-13T10:05:53.235Z,9.00
2018-08-13T10:08:21.620Z,8.55
2018-08-13T10:10:49.750Z,10.00
2018-08-13T10:13:17.761Z,8.90
2018-08-13T10:15:45.920Z,10.08
2018-08-13T10:18:13.961Z,8.10
2018-08-13T10:20:42.056Z,9.18
2018-08-13T10:23:10.104Z,9.93
2018-08-13T10:25:38.342Z,10.32
2018-08-13T10:28:06.408Z,9.93
2018-08-13T10:30:34.961Z,10.28
2018-08-13T10:33:03.206Z,9.53
2018-08-13T10:35:31.276Z,8.13
2018-08-13T10:37:59.361Z,9.75
2018-08-13T10:40:27.445Z,7.80
2018-08-13T10:42:55.562Z,7.45
2018-08-13T10:45:23.645Z,8.40
2018-08-13T10:47:51.732Z,8.45
2018-08-13T10:50:19.799Z,8.23
2018-08-13T10:52:48.009Z,8.53
2018-08-13T10:55:16.203Z,8.55
2018-08-13T10:57:44.400Z,8.35
2018-08-13T11:00:14.585Z,7.70
2018-08-13T11:02:42.752Z,8.50
2018-08-13T11:05:12.124Z,9.15
2018-08-13T11:07:40.513Z,9.28
2018-08-13T11:10:10.379Z,7.95
2018-08-13T11:12:38.621Z,8.35
2018-08-13T11:15:11.765Z,8.55
2018-08-13T11:17:40.149Z,8.58
2018-08-13T11:20:08.485Z,8.58
2018-08-13T11:22:36.829Z,8.48
2018-08-13T11:25:05.960Z,7.90
2018-08-13T11:27:34.012Z,8.83
2018-08-13T11:30:02.374Z,8.33
2018-08-13T11:32:30.475Z,7.97
2018-08-13T11:34:58.561Z,7.67
2018-08-13T11:37:26.945Z,7.85
2018-08-13T11:39:54.984Z,8.10
2018-08-13T11:42:23.039Z,8.10
2018-08-13T11:44:51.117Z,8.40
2018-08-13T11:47:19.466Z,9.13
2018-08-13T11:49:47.579Z,7.72
2018-08-13T11:52:15.663Z,9.43
2018-08-13T11:54:43.684Z,8.38
2018-08-13T11:57:11.724Z,8.08
2018-08-13T11:59:39.800Z,6.72
2018-08-13T12:02:07.917Z,6.03
2018-08-13T12:04:35.900Z,5.90
2018-08-13T12:07:04.116Z,5.67
2018-08-13T12:09:32.159Z,5.20
2018-08-13T12:12:00.235Z,5.72
2018-08-13T12:14:28.296Z,5.58
2018-08-13T12:16:56.369Z,5.03
2018-08-13T12:19:24.554Z,6.05
2018-08-13T12:21:52.602Z,5.62
2018-08-13T12:24:20.668Z,6.37
2018-08-13T12:26:48.800Z,6.03
2018-08-13T12:29:16.937Z,7.08
2018-08-13T12:31:45.004Z,5.53
2018-08-13T12:34:13.104Z,5.80
2018-08-13T12:36:41.148Z,5.97
2018-08-13T12:39:10.820Z,6.22
2018-08-13T12:41:38.933Z,5.53
2018-08-13T12:44:07.418Z,6.97
2018-08-13T12:46:35.698Z,5.87
2018-08-13T12:49:03.809Z,5.80
2018-08-13T12:51:31.865Z,5.60
2018-08-13T12:54:00.037Z,5.60
2018-08-13T12:56:28.072Z,4.30
2018-08-13T12:58:56.160Z,2.98
2018-08-13T13:01:24.434Z,3.17
2018-08-13T13:03:52.632Z,3.15
2018-08-13T13:06:20.804Z,2.90
2018-08-13T13:08:48.911Z,3.20
2018-08-13T13:11:16.980Z,3.42
2018-08-13T13:13:45.053Z,2.77
2018-08-13T13:16:13.208Z,2.70
2018-08-13T13:18:41.260Z,2.80
2018-08-13T13:21:09.336Z,3.10
2018-08-13T13:23:37.384Z,2.90
2018-08-13T13:26:05.549Z,2.47
2018-08-13T13:28:33.612Z,2.65
2018-08-13T13:31:01.703Z,2.40
2018-08-13T13:33:30.329Z,2.85
2018-08-13T13:35:58.400Z,2.50
2018-08-13T13:38:26.464Z,2.10
2018-08-13T13:40:54.521Z,1.90
2018-08-13T13:43:22.653Z,2.17
2018-08-13T13:45:50.692Z,2.27
2018-08-13T13:48:18.752Z,2.25
2018-08-13T13:50:46.871Z,2.22
2018-08-13T13:53:14.941Z,2.27
2018-08-13T13:55:42.988Z,2.40
2018-08-13T13:58:11.074Z,2.00
2018-08-13T14:00:39.156Z,2.20
2018-08-13T14:03:07.215Z,2.65
2018-08-13T14:05:35.271Z,3.00
2018-08-13T14:08:03.337Z,2.72
2018-08-13T14:10:31.376Z,2.50
2018-08-13T14:12:59.429Z,2.87
2018-08-13T14:15:27.468Z,2.60
2018-08-13T14:17:55.520Z,3.30
2018-08-13T14:20:23.553Z,2.95
2018-08-13T14:22:51.597Z,2.70
2018-08-13T14:25:19.645Z,2.98
2018-08-13T14:27:47.772Z,3.22
2018-08-13T14:30:20.365Z,2.62
2018-08-13T14:32:48.775Z,2.70
2018-08-13T14:35:17.565Z,2.80
2018-08-13T14:37:45.612Z,2.47
2018-08-13T14:40:13.841Z,2.67
2018-08-13T14:42:42.727Z,2.58
2018-08-13T14:45:12.489Z,2.40
2018-08-13T14:47:41.785Z,2.87
2018-08-13T14:50:10.784Z,3.20
2018-08-13T14:52:39.704Z,2.83
2018-08-13T14:55:07.887Z,2.42
2018-08-13T14:57:36.201Z,2.50
2018-08-13T15:00:15.821Z,2.65
2018-08-13T15:02:43.904Z,3.22
2018-08-13T15:05:11.973Z,2.70
2018-08-13T15:07:40.096Z,2.90
2018-08-13T15:10:11.749Z,2.67
2018-08-13T15:12:39.813Z,2.40
2018-08-13T15:15:09.455Z,2.50
2018-08-13T15:17:37.626Z,2.42
2018-08-13T15:20:06.297Z,2.60
2018-08-13T15:22:34.520Z,2.17
2018-08-13T15:25:02.597Z,2.00
2018-08-13T15:27:30.761Z,2.40
2018-08-13T15:29:58.766Z,2.33
2018-08-13T15:32:26.803Z,1.90
2018-08-13T15:34:54.856Z,2.15
2018-08-13T15:37:23.332Z,1.92
2018-08-13T15:39:51.404Z,2.10
2018-08-13T15:42:19.464Z,1.90
2018-08-13T15:44:47.560Z,1.95
2018-08-13T15:47:15.616Z,2.00
2018-08-13T15:49:43.728Z,1.90
2018-08-13T15:52:11.949Z,1.98
2018-08-13T15:54:40.034Z,1.72
2018-08-13T15:57:08.116Z,2.00
2018-08-13T15:59:36.177Z,2.75
2018-08-13T16:02:04.396Z,2.27
2018-08-13T16:04:32.548Z,2.10
2018-08-13T16:07:00.649Z,2.15
2018-08-13T16:09:28.736Z,2.25
2018-08-13T16:11:56.822Z,2.40
2018-08-13T16:14:25.026Z,2.22
2018-08-13T16:16:53.063Z,2.12
2018-08-13T16:19:21.176Z,2.30
2018-08-13T16:21:49.198Z,2.30
2018-08-13T16:24:17.307Z,2.42
2018-08-13T16:26:45.517Z,2.17
2018-08-13T16:29:13.539Z,2.45
2018-08-13T16:31:41.573Z,2.20
2018-08-13T16:34:09.648Z,2.75
2018-08-13T16:36:37.992Z,2.42
2018-08-13T16:39:08.582Z,2.50
2018-08-13T16:41:36.828Z,2.87
2018-08-13T16:44:05.013Z,2.30
2018-08-13T16:46:33.296Z,2.67
2018-08-13T16:49:01.591Z,2.70
2018-08-13T16:51:29.659Z,2.85
2018-08-13T16:53:57.716Z,2.70
2018-08-13T16:56:25.793Z,2.30
2018-08-13T16:58:53.900Z,2.65
2018-08-13T17:01:28.461Z,2.40
2018-08-13T17:03:56.537Z,2.52
2018-08-13T17:06:24.597Z,2.45
2018-08-13T17:08:52.681Z,3.00
2018-08-13T17:11:20.764Z,2.72
2018-08-13T17:13:48.845Z,2.40
2018-08-13T17:16:16.916Z,2.60
2018-08-13T17:18:44.977Z,2.60
2018-08-13T17:21:13.060Z,3.12
2018-08-13T17:23:41.165Z,2.60
2018-08-13T17:26:09.221Z,2.50
2018-08-13T17:28:37.264Z,3.35
2018-08-13T17:31:05.765Z,2.70
2018-08-13T17:33:33.869Z,2.47
2018-08-13T17:36:01.944Z,3.05
2018-08-13T17:38:29.973Z,2.80
2018-08-13T17:40:58.045Z,2.87
2018-08-13T17:43:26.095Z,3.02
2018-08-13T17:45:54.265Z,2.87
2018-08-13T17:48:22.209Z,2.70
2018-08-13T17:50:50.350Z,1.87
2018-08-13T17:53:18.376Z,1.55
2018-08-13T17:55:46.428Z,1.62
2018-08-13T17:58:14.477Z,1.50
2018-08-13T18:00:42.534Z,1.60
2018-08-13T18:03:10.613Z,1.52
2018-08-13T18:05:38.668Z,1.40
2018-08-13T18:08:07.316Z,1.80
2018-08-13T18:10:35.392Z,1.32
2018-08-13T18:13:05.247Z,1.35
2018-08-13T18:15:33.393Z,1.50
2018-08-13T18:18:01.460Z,1.30
2018-08-13T18:20:29.586Z,1.20
2018-08-13T18:22:57.705Z,1.30
2018-08-13T18:25:25.813Z,1.40
2018-08-13T18:27:53.889Z,1.00
2018-08-13T18:30:26.981Z,1.40
2018-08-13T18:32:55.385Z,1.60
2018-08-13T18:35:23.529Z,1.10
2018-08-13T18:37:51.644Z,1.35
2018-08-13T18:40:22.097Z,1.30
2018-08-13T18:42:50.372Z,1.85
2018-08-13T18:45:18.447Z,1.40
2018-08-13T18:47:46.832Z,1.50
2018-08-13T18:50:16.552Z,1.37
2018-08-13T18:52:45.097Z,1.17
2018-08-13T18:55:14.901Z,1.10
2018-08-13T18:57:42.998Z,1.40
2018-08-13T19:00:14.100Z,1.60
2018-08-13T19:02:42.221Z,1.40
2018-08-13T19:05:11.549Z,1.30
2018-08-13T19:07:39.616Z,1.40
2018-08-13T19:10:09.817Z,1.50
2018-08-13T19:12:38.037Z,1.62
2018-08-13T19:15:08.245Z,1.30
2018-08-13T19:17:36.376Z,1.27
2018-08-13T19:20:06.089Z,1.40
2018-08-13T19:22:34.273Z,1.40
2018-08-13T19:25:02.449Z,1.60
2018-08-13T19:27:30.519Z,1.27
2018-08-13T19:29:58.621Z,1.50
2018-08-13T19:32:26.710Z,1.40
2018-08-13T19:34:54.746Z,1.42
2018-08-13T19:37:22.843Z,1.47
2018-08-13T19:39:50.893Z,2.05
2018-08-13T19:42:19.047Z,1.52
2018-08-13T19:44:47.093Z,1.42
2018-08-13T19:47:15.232Z,1.62
2018-08-13T19:49:43.301Z,1.55
2018-08-13T19:52:11.444Z,1.52
2018-08-13T19:54:39.500Z,1.62
2018-08-13T19:57:07.632Z,1.80
2018-08-13T19:59:35.743Z,1.50
2018-08-13T20:02:03.833Z,1.40
2018-08-13T20:04:31.935Z,1.60
2018-08-13T20:07:00.029Z,1.70
2018-08-13T20:09:28.186Z,1.50
2018-08-13T20:11:56.233Z,1.90
2018-08-13T20:14:25.492Z,1.50
2018-08-13T20:16:54.545Z,1.50
2018-08-13T20:19:22.569Z,1.70
2018-08-13T20:21:50.632Z,2.10
2018-08-13T20:24:18.744Z,1.35
2018-08-13T20:26:46.813Z,2.30
2018-08-13T20:29:14.912Z,1.87
2018-08-13T20:31:43.302Z,1.57
2018-08-13T20:34:11.364Z,1.70
2018-08-13T20:36:40.018Z,1.75
2018-08-13T20:39:12.404Z,1.45
2018-08-13T20:41:40.837Z,1.60
2018-08-13T20:44:09.370Z,1.92
2018-08-13T20:46:37.592Z,1.70
2018-08-13T20:49:06.246Z,1.80
2018-08-13T20:51:34.560Z,1.50
2018-08-13T20:54:02.722Z,1.90
2018-08-13T20:56:30.796Z,2.20
2018-08-13T20:58:58.873Z,1.57
2018-08-13T21:01:26.924Z,2.00
2018-08-13T21:03:54.972Z,2.17
2018-08-13T21:06:23.156Z,1.95
2018-08-13T21:08:51.265Z,1.57
2018-08-13T21:11:26.282Z,2.98
2018-08-13T21:13:54.366Z,2.95
2018-08-13T21:16:22.417Z,2.67
2018-08-13T21:18:50.488Z,2.00
2018-08-13T21:21:18.548Z,1.98
2018-08-13T21:23:46.616Z,1.90
2018-08-13T21:26:14.787Z,1.80
2018-08-13T21:28:42.829Z,1.90
2018-08-13T21:31:10.933Z,2.00
2018-08-13T21:33:38.973Z,1.82
2018-08-13T21:36:07.076Z,1.90
2018-08-13T21:38:35.142Z,2.50
2018-08-13T21:41:03.298Z,1.60
2018-08-13T21:43:31.382Z,2.33
2018-08-13T21:45:59.427Z,2.00
2018-08-13T21:48:27.499Z,1.70
2018-08-13T21:50:55.559Z,2.15
2018-08-13T21:53:23.641Z,2.35
2018-08-13T21:55:51.723Z,2.22
2018-08-13T21:58:19.788Z,2.15
2018-08-13T22:00:53.405Z,2.25
2018-08-13T22:03:21.456Z,2.10
2018-08-13T22:05:49.525Z,2.10
2018-08-13T22:08:17.593Z,1.85
2018-08-13T22:10:45.690Z,1.85
2018-08-13T22:13:13.753Z,2.55
2018-08-13T22:15:41.805Z,1.92
2018-08-13T22:18:09.869Z,2.00
2018-08-13T22:20:38.032Z,1.95
2018-08-13T22:23:07.169Z,1.85
2018-08-13T22:25:40.311Z,4.25
2018-08-13T22:28:09.456Z,2.00
2018-08-13T22:30:37.508Z,2.30
2018-08-13T22:33:06.656Z,2.00
2018-08-13T22:35:34.696Z,2.27
2018-08-13T22:38:02.829Z,2.00
2018-08-13T22:40:30.952Z,2.00
2018-08-13T22:42:58.984Z,1.75
2018-08-13T22:45:27.016Z,1.98
2018-08-13T22:47:55.069Z,1.75
2018-08-13T22:50:23.116Z,2.30
2018-08-13T22:52:51.172Z,2.22
2018-08-13T22:55:19.469Z,2.15
2018-08-13T22:57:47.830Z,1.60
2018-08-13T23:00:18.096Z,2.77
2018-08-13T23:02:47.114Z,2.15
2018-08-13T23:05:18.777Z,2.67
2018-08-13T23:07:46.820Z,2.12
2018-08-13T23:10:17.096Z,2.30
2018-08-13T23:12:45.897Z,2.30
2018-08-13T23:15:15.019Z,2.90
2018-08-13T23:17:43.398Z,2.30
2018-08-13T23:20:18.203Z,2.22
2018-08-13T23:22:52.185Z,1.90
2018-08-13T23:25:20.561Z,2.42
2018-08-13T23:27:49.972Z,2.37
